Time;durP1;ratioP1;P1;durP2;ratioP2;P2;SDS_P1;SDS_P2;PMS_P1;PMS_P2;Temp;Humidity;BMP_temperature;BMP_pressure;BME280_temperature;BME280_humidity;BME280_pressure;Samples;Min_cycle;Max_cycle;Signal;HPM_P1;HPM_P2
2022/03/03 00:02:18;;;;;;;81.00;18.23;;;;;;;;;;5092133;28;20227;-69
2022/03/03 00:04:46;;;;;;;79.90;17.90;;;;;;;;;;5091306;28;20252;-68
2022/03/03 00:07:14;;;;;;;81.20;15.75;;;;;;;;;;5091660;28;20211;-69
2022/03/03 00:09:41;;;;;;;84.72;16.00;;;;;;;;;;5091803;28;20621;-68
2022/03/03 00:12:09;;;;;;;79.68;16.92;;;;;;;;;;5092032;28;20200;-70
2022/03/03 00:14:36;;;;;;;86.60;16.42;;;;;;;;;;5091572;28;20291;-70
2022/03/03 00:17:03;;;;;;;85.57;15.95;;;;;;;;;;5091786;28;20298;-69
2022/03/03 00:19:32;;;;;;;76.95;16.10;;;;;;;;;;5091565;28;20310;-69
2022/03/03 00:21:59;;;;;;;77.80;16.02;;;;;;;;;;5091808;28;20208;-69
2022/03/03 00:24:26;;;;;;;77.55;16.85;;;;;;;;;;5091774;28;20265;-68
2022/03/03 00:26:53;;;;;;;85.75;18.70;;;;;;;;;;5091881;28;20227;-68
2022/03/03 00:29:20;;;;;;;81.85;15.70;;;;;;;;;;5091314;28;20687;-70
2022/03/03 00:31:48;;;;;;;88.43;17.02;;;;;;;;;;5091549;28;20294;-69
2022/03/03 00:34:15;;;;;;;80.43;15.90;;;;;;;;;;5091473;28;20242;-68
2022/03/03 00:36:44;;;;;;;83.28;16.25;;;;;;;;;;5091683;28;20224;-68
2022/03/03 00:39:11;;;;;;;77.55;15.95;;;;;;;;;;5091323;28;20232;-69
2022/03/03 00:41:38;;;;;;;74.40;14.07;;;;;;;;;;5091656;28;20206;-68
2022/03/03 00:44:06;;;;;;;78.63;15.40;;;;;;;;;;5091668;28;20628;-69
2022/03/03 00:46:34;;;;;;;73.55;14.95;;;;;;;;;;5091348;28;20225;-68
2022/03/03 00:49:01;;;;;;;76.78;15.63;;;;;;;;;;5090948;28;20291;-70
2022/03/03 00:51:28;;;;;;;75.32;14.85;;;;;;;;;;5091617;28;20554;-68
2022/03/03 00:53:57;;;;;;;79.03;17.73;;;;;;;;;;5091730;28;20208;-69
2022/03/03 00:56:24;;;;;;;75.57;14.80;;;;;;;;;;5091510;28;20224;-69
2022/03/03 00:58:51;;;;;;;76.00;15.88;;;;;;;;;;5091264;28;20224;-70
2022/03/03 01:01:18;;;;;;;79.90;16.25;;;;;;;;;;5091428;28;20200;-68
2022/03/03 01:03:45;;;;;;;88.75;17.70;;;;;;;;;;5091191;28;20215;-69
2022/03/03 01:06:13;;;;;;;80.55;16.77;;;;;;;;;;5091424;28;20220;-69
2022/03/03 01:08:41;;;;;;;79.93;17.05;;;;;;;;;;5091376;28;20200;-68
2022/03/03 01:11:09;;;;;;;80.50;15.95;;;;;;;;;;5091616;28;20204;-69
2022/03/03 01:13:36;;;;;;;85.45;18.85;;;;;;;;;;5091342;28;20303;-69
2022/03/03 01:16:04;;;;;;;74.72;15.68;;;;;;;;;;5092503;28;20228;-71
2022/03/03 01:18:31;;;;;;;82.90;17.20;;;;;;;;;;5094413;28;20259;-69
2022/03/03 01:20:59;;;;;;;79.68;16.20;;;;;;;;;;5094902;28;20580;-68
2022/03/03 01:23:26;;;;;;;79.57;16.25;;;;;;;;;;5094886;28;20580;-70
2022/03/03 01:25:53;;;;;;;77.47;17.15;;;;;;;;;;5094556;28;20234;-69
2022/03/03 01:28:21;;;;;;;80.13;17.83;;;;;;;;;;5094361;28;20307;-70
2022/03/03 01:30:49;;;;;;;80.90;18.85;;;;;;;;;;5094481;28;20296;-69
2022/03/03 01:33:16;;;;;;;81.63;19.73;;;;;;;;;;5094641;28;20222;-69
2022/03/03 01:35:43;;;;;;;86.95;20.70;;;;;;;;;;5094510;28;20228;-70
2022/03/03 01:38:10;;;;;;;85.70;21.20;;;;;;;;;;5094036;28;20220;-71
2022/03/03 01:40:38;;;;;;;84.07;20.17;;;;;;;;;;5094498;28;20291;-69
2022/03/03 01:43:05;;;;;;;84.97;20.00;;;;;;;;;;5094043;28;20668;-69
2022/03/03 01:45:34;;;;;;;87.35;18.90;;;;;;;;;;5094240;28;20319;-71
2022/03/03 01:48:01;;;;;;;79.38;16.77;;;;;;;;;;5093803;28;20312;-69
2022/03/03 01:50:28;;;;;;;83.75;17.92;;;;;;;;;;5094194;28;20291;-69
2022/03/03 01:52:55;;;;;;;77.38;15.65;;;;;;;;;;5094038;28;20295;-69
2022/03/03 01:55:23;;;;;;;87.43;16.08;;;;;;;;;;5094008;28;20243;-69
2022/03/03 01:57:50;;;;;;;80.20;16.55;;;;;;;;;;5093665;28;20287;-69
2022/03/03 02:00:18;;;;;;;79.35;16.35;;;;;;;;;;5094383;28;20251;-69
2022/03/03 02:02:47;;;;;;;78.70;15.60;;;;;;;;;;5093957;28;20240;-69
2022/03/03 02:05:14;;;;;;;79.03;15.80;;;;;;;;;;5093776;28;20228;-69
2022/03/03 02:07:41;;;;;;;85.47;18.05;;;;;;;;;;5093642;28;20303;-69
2022/03/03 02:10:09;;;;;;;76.47;15.90;;;;;;;;;;5093959;28;20201;-69
2022/03/03 02:12:36;;;;;;;77.13;16.00;;;;;;;;;;5093741;28;20301;-69
2022/03/03 02:15:03;;;;;;;75.60;16.73;;;;;;;;;;5093915;28;20220;-69
2022/03/03 02:17:30;;;;;;;76.32;15.68;;;;;;;;;;5093454;28;20232;-69
2022/03/03 02:19:59;;;;;;;80.30;16.30;;;;;;;;;;5093411;28;20228;-69
2022/03/03 02:22:27;;;;;;;77.75;15.52;;;;;;;;;;5093537;28;20295;-67
2022/03/03 02:24:54;;;;;;;74.18;15.60;;;;;;;;;;5093331;28;20311;-68
2022/03/03 02:27:22;;;;;;;82.80;15.90;;;;;;;;;;5092758;28;20312;-68
2022/03/03 02:29:51;;;;;;;80.88;17.25;;;;;;;;;;5093430;28;20238;-68
2022/03/03 02:32:18;;;;;;;75.63;15.73;;;;;;;;;;5093197;28;20212;-69
2022/03/03 02:34:49;;;;;;;79.85;15.55;;;;;;;;;;5093285;28;20227;-69
2022/03/03 02:37:16;;;;;;;77.60;15.63;;;;;;;;;;5093052;28;20204;-68
2022/03/03 02:39:45;;;;;;;72.32;13.85;;;;;;;;;;5093325;28;20643;-68
2022/03/03 02:42:12;;;;;;;73.35;14.25;;;;;;;;;;5093044;28;20227;-69
2022/03/03 02:44:39;;;;;;;76.28;13.85;;;;;;;;;;5093264;28;20208;-66
2022/03/03 02:47:07;;;;;;;74.57;14.80;;;;;;;;;;5091561;28;20204;-71
2022/03/03 02:49:34;;;;;;;76.97;14.85;;;;;;;;;;5092909;28;20196;-68
2022/03/03 02:52:01;;;;;;;80.25;17.00;;;;;;;;;;5093071;28;20200;-69
2022/03/03 02:54:29;;;;;;;76.82;15.27;;;;;;;;;;5093376;28;20295;-69
2022/03/03 02:59:42;;;;;;;80.22;14.95;;;;;;;;;;5092845;28;20234;-68
2022/03/03 03:02:09;;;;;;;75.25;15.77;;;;;;;;;;5092808;28;20682;-69
2022/03/03 03:04:37;;;;;;;79.85;16.13;;;;;;;;;;5092613;28;20251;-69
2022/03/03 03:07:04;;;;;;;81.15;16.55;;;;;;;;;;5092719;28;20208;-69
2022/03/03 03:09:31;;;;;;;83.90;17.00;;;;;;;;;;5092462;28;20644;-68
2022/03/03 03:12:00;;;;;;;74.88;14.70;;;;;;;;;;5092724;28;20648;-68
2022/03/03 03:14:27;;;;;;;76.13;15.48;;;;;;;;;;5092398;28;20204;-69
2022/03/03 03:16:54;;;;;;;76.90;15.02;;;;;;;;;;5092510;28;20230;-68
2022/03/03 03:19:22;;;;;;;80.28;15.75;;;;;;;;;;5092400;28;20668;-68
2022/03/03 03:21:49;;;;;;;77.22;15.10;;;;;;;;;;5092724;28;20579;-68
2022/03/03 03:24:16;;;;;;;79.05;17.92;;;;;;;;;;5092946;28;20211;-68
2022/03/03 03:26:43;;;;;;;78.47;15.20;;;;;;;;;;5092910;28;20224;-68
2022/03/03 03:29:11;;;;;;;80.47;17.77;;;;;;;;;;5092497;28;20212;-67
2022/03/03 03:31:39;;;;;;;76.55;16.10;;;;;;;;;;5092859;28;20295;-68
2022/03/03 03:34:06;;;;;;;79.07;15.93;;;;;;;;;;5092715;28;20210;-68
2022/03/03 03:36:33;;;;;;;77.18;16.75;;;;;;;;;;5092566;28;20224;-68
2022/03/03 03:39:00;;;;;;;78.10;15.73;;;;;;;;;;5091582;28;20227;-68
2022/03/03 03:41:27;;;;;;;77.07;14.25;;;;;;;;;;5092392;28;20211;-69
2022/03/03 03:43:54;;;;;;;75.65;15.75;;;;;;;;;;5092234;28;20629;-67
2022/03/03 03:46:23;;;;;;;80.07;15.25;;;;;;;;;;5092061;28;20238;-67
2022/03/03 03:48:50;;;;;;;77.45;15.27;;;;;;;;;;5091736;28;20207;-68
2022/03/03 03:51:17;;;;;;;77.53;15.85;;;;;;;;;;5092018;28;20206;-68
2022/03/03 03:53:44;;;;;;;77.30;14.60;;;;;;;;;;5092347;28;20210;-69
2022/03/03 03:56:11;;;;;;;73.47;13.48;;;;;;;;;;5091938;28;20738;-68
2022/03/03 03:58:38;;;;;;;77.55;16.23;;;;;;;;;;5091540;28;20210;-68
2022/03/03 04:01:06;;;;;;;74.30;13.55;;;;;;;;;;5091959;28;20218;-68
2022/03/03 04:03:34;;;;;;;79.07;14.93;;;;;;;;;;5092420;28;20214;-69
2022/03/03 04:06:01;;;;;;;80.72;15.32;;;;;;;;;;5091819;28;20235;-68
2022/03/03 04:08:28;;;;;;;74.70;15.15;;;;;;;;;;5091936;28;20204;-70
2022/03/03 04:10:55;;;;;;;75.03;14.45;;;;;;;;;;5091809;28;20306;-68
2022/03/03 04:13:23;;;;;;;76.13;15.10;;;;;;;;;;5091925;28;20218;-69
2022/03/03 04:15:50;;;;;;;73.55;13.93;;;;;;;;;;5091642;28;20231;-67
2022/03/03 04:18:17;;;;;;;71.68;13.52;;;;;;;;;;5091737;28;20212;-68
2022/03/03 04:20:45;;;;;;;74.22;13.52;;;;;;;;;;5092020;28;20220;-68
2022/03/03 04:23:15;;;;;;;77.70;13.43;;;;;;;;;;5091781;28;20309;-68
2022/03/03 04:25:42;;;;;;;75.30;13.70;;;;;;;;;;5091636;28;20273;-68
2022/03/03 04:28:09;;;;;;;84.38;15.35;;;;;;;;;;5091578;28;20204;-68
2022/03/03 04:30:37;;;;;;;74.63;13.45;;;;;;;;;;5091557;28;20207;-68
2022/03/03 04:33:04;;;;;;;78.25;14.07;;;;;;;;;;5091680;28;20290;-68
2022/03/03 04:35:31;;;;;;;77.28;14.50;;;;;;;;;;5091719;28;20311;-68
2022/03/03 04:37:59;;;;;;;75.68;15.07;;;;;;;;;;5091396;28;20211;-68
2022/03/03 04:40:27;;;;;;;73.68;13.07;;;;;;;;;;5091636;28;20224;-68
2022/03/03 04:42:54;;;;;;;77.05;14.73;;;;;;;;;;5091516;28;20622;-68
2022/03/03 04:45:21;;;;;;;76.70;14.55;;;;;;;;;;5091250;28;20243;-68
2022/03/03 04:47:48;;;;;;;78.20;15.48;;;;;;;;;;5091400;28;20296;-69
2022/03/03 04:50:15;;;;;;;78.10;15.75;;;;;;;;;;5091698;28;20287;-68
2022/03/03 04:52:42;;;;;;;75.97;13.80;;;;;;;;;;5095615;28;20240;-69
2022/03/03 04:55:12;;;;;;;74.63;13.32;;;;;;;;;;5095522;28;20224;-68
2022/03/03 04:57:39;;;;;;;77.28;15.65;;;;;;;;;;5094879;28;20219;-69
2022/03/03 05:00:07;;;;;;;78.88;15.50;;;;;;;;;;5095345;28;20230;-69
2022/03/03 05:02:35;;;;;;;76.05;14.80;;;;;;;;;;5095217;28;20216;-69
2022/03/03 05:05:02;;;;;;;77.50;14.75;;;;;;;;;;5094893;28;20223;-70
2022/03/03 05:07:29;;;;;;;79.88;14.93;;;;;;;;;;5094803;28;20232;-69
2022/03/03 05:09:56;;;;;;;76.78;14.52;;;;;;;;;;5095192;28;20672;-70
2022/03/03 05:12:24;;;;;;;80.55;14.77;;;;;;;;;;5094833;28;20295;-69
2022/03/03 05:14:52;;;;;;;75.43;14.90;;;;;;;;;;5094736;28;20251;-69
2022/03/03 05:17:19;;;;;;;77.75;14.90;;;;;;;;;;5094783;28;20200;-69
2022/03/03 05:19:46;;;;;;;74.75;14.55;;;;;;;;;;5094900;28;20230;-68
2022/03/03 05:22:13;;;;;;;80.63;16.45;;;;;;;;;;5094775;28;20295;-68
2022/03/03 05:24:40;;;;;;;82.85;15.55;;;;;;;;;;5094791;28;20307;-70
2022/03/03 05:27:07;;;;;;;77.55;15.45;;;;;;;;;;5094763;28;20204;-68
2022/03/03 05:29:36;;;;;;;77.07;15.52;;;;;;;;;;5094654;28;20208;-70
2022/03/03 05:32:04;;;;;;;79.63;15.57;;;;;;;;;;5094657;28;20208;-68
2022/03/03 05:34:31;;;;;;;79.07;15.35;;;;;;;;;;5094526;28;20668;-69
2022/03/03 05:36:58;;;;;;;75.93;15.52;;;;;;;;;;5094467;28;20299;-68
2022/03/03 05:39:25;;;;;;;76.90;16.98;;;;;;;;;;5093949;28;20299;-69
2022/03/03 05:41:55;;;;;;;76.78;14.00;;;;;;;;;;5094656;28;20208;-69
2022/03/03 05:44:22;;;;;;;79.53;15.32;;;;;;;;;;5094292;28;20208;-69
2022/03/03 05:46:51;;;;;;;75.65;15.60;;;;;;;;;;5094451;28;20204;-69
2022/03/03 05:49:19;;;;;;;76.45;15.75;;;;;;;;;;5094038;28;20208;-68
2022/03/03 05:51:46;;;;;;;78.95;16.38;;;;;;;;;;5094140;28;20253;-69
2022/03/03 05:54:13;;;;;;;82.80;17.15;;;;;;;;;;5094308;28;20208;-70
2022/03/03 05:56:43;;;;;;;83.85;18.73;;;;;;;;;;5094474;28;20604;-69
2022/03/03 05:59:13;;;;;;;79.45;15.25;;;;;;;;;;5093735;28;20687;-69
2022/03/03 06:01:42;;;;;;;89.75;15.55;;;;;;;;;;5093786;28;20205;-69
2022/03/03 06:04:14;;;;;;;77.82;15.55;;;;;;;;;;5093335;28;20625;-68
2022/03/03 06:06:42;;;;;;;87.80;16.63;;;;;;;;;;5094078;28;20228;-69
2022/03/03 06:09:11;;;;;;;78.38;16.83;;;;;;;;;;5093789;28;20295;-69
2022/03/03 06:11:43;;;;;;;77.00;15.88;;;;;;;;;;5093895;28;20211;-68
2022/03/03 06:14:11;;;;;;;78.07;16.45;;;;;;;;;;5093805;28;20211;-68
2022/03/03 06:16:39;;;;;;;76.30;16.10;;;;;;;;;;5093623;28;20231;-71
2022/03/03 06:19:06;;;;;;;78.50;16.35;;;;;;;;;;5093607;28;20208;-69
2022/03/03 06:21:34;;;;;;;75.20;14.73;;;;;;;;;;5093661;28;20302;-69
2022/03/03 06:24:02;;;;;;;76.80;15.77;;;;;;;;;;5093513;28;20223;-68
2022/03/03 06:26:29;;;;;;;75.85;15.10;;;;;;;;;;5093463;28;20585;-69
2022/03/03 06:28:57;;;;;;;79.63;15.35;;;;;;;;;;5093220;28;20216;-69
2022/03/03 06:31:27;;;;;;;77.82;16.00;;;;;;;;;;5093414;28;20208;-69
2022/03/03 06:33:54;;;;;;;81.47;16.88;;;;;;;;;;5093317;28;20207;-68
2022/03/03 06:36:21;;;;;;;79.53;15.55;;;;;;;;;;5093434;28;20340;-70
2022/03/03 06:38:49;;;;;;;78.57;15.32;;;;;;;;;;5093152;28;20209;-69
2022/03/03 06:41:16;;;;;;;77.97;14.90;;;;;;;;;;5093111;28;20770;-69
2022/03/03 06:43:44;;;;;;;86.63;17.23;;;;;;;;;;5093072;28;20743;-69
2022/03/03 06:46:11;;;;;;;77.72;16.30;;;;;;;;;;5093338;28;20243;-70
2022/03/03 06:48:38;;;;;;;81.32;16.95;;;;;;;;;;5093155;28;20204;-69
2022/03/03 06:51:06;;;;;;;77.60;15.52;;;;;;;;;;5093611;28;20688;-69
2022/03/03 06:53:35;;;;;;;75.32;14.88;;;;;;;;;;5092894;28;20201;-70
2022/03/03 06:56:05;;;;;;;76.72;15.30;;;;;;;;;;5093111;28;20742;-69
2022/03/03 06:58:33;;;;;;;75.65;15.05;;;;;;;;;;5092803;28;20204;-69
2022/03/03 07:01:03;;;;;;;77.35;15.82;;;;;;;;;;5093008;28;20230;-69
2022/03/03 07:03:31;;;;;;;82.03;15.55;;;;;;;;;;5092942;28;20208;-69
2022/03/03 07:05:58;;;;;;;81.50;16.45;;;;;;;;;;5092743;28;20225;-69
2022/03/03 07:08:25;;;;;;;83.78;17.10;;;;;;;;;;5092538;28;20213;-70
2022/03/03 07:10:53;;;;;;;85.35;17.08;;;;;;;;;;5090061;28;20214;-70
2022/03/03 07:13:22;;;;;;;84.30;16.40;;;;;;;;;;5089251;28;20299;-70
2022/03/03 07:15:50;;;;;;;81.13;17.23;;;;;;;;;;5091732;28;20224;-70
2022/03/03 07:18:19;;;;;;;79.43;15.63;;;;;;;;;;5091551;28;20220;-68
2022/03/03 07:20:52;;;;;;;80.95;18.95;;;;;;;;;;5091750;28;20228;-69
2022/03/03 07:23:23;;;;;;;81.55;18.17;;;;;;;;;;5091423;28;20641;-71
2022/03/03 07:25:54;;;;;;;84.13;18.65;;;;;;;;;;5092049;28;20266;-68
2022/03/03 07:28:23;;;;;;;81.68;20.02;;;;;;;;;;5091667;28;20214;-68
2022/03/03 07:30:50;;;;;;;88.40;20.30;;;;;;;;;;5091948;28;20200;-70
2022/03/03 07:33:20;;;;;;;87.43;21.65;;;;;;;;;;5092206;28;20208;-71
2022/03/03 07:35:50;;;;;;;83.72;19.67;;;;;;;;;;5092205;28;20255;-69
2022/03/03 07:38:19;;;;;;;82.93;18.75;;;;;;;;;;5091952;28;20212;-68
2022/03/03 07:40:48;;;;;;;82.82;18.05;;;;;;;;;;5092257;28;20320;-69
2022/03/03 07:43:16;;;;;;;87.68;18.90;;;;;;;;;;5089401;28;20212;-68
2022/03/03 07:45:45;;;;;;;79.28;16.60;;;;;;;;;;5072190;28;20231;-68
2022/03/03 07:48:13;;;;;;;83.78;18.88;;;;;;;;;;5071103;28;20212;-69
2022/03/03 07:50:41;;;;;;;79.63;17.67;;;;;;;;;;5071202;28;20622;-68
2022/03/03 07:53:10;;;;;;;86.13;18.48;;;;;;;;;;5071870;28;20209;-68
2022/03/03 07:55:42;;;;;;;86.88;18.88;;;;;;;;;;5071740;28;20231;-68
2022/03/03 07:58:13;;;;;;;77.88;16.70;;;;;;;;;;5071728;28;20204;-68
2022/03/03 08:00:43;;;;;;;84.07;16.80;;;;;;;;;;5071635;28;20227;-68
2022/03/03 08:03:13;;;;;;;78.15;17.23;;;;;;;;;;5071504;28;20208;-68
2022/03/03 08:05:41;;;;;;;80.22;18.40;;;;;;;;;;5072011;28;20229;-69
2022/03/03 08:08:10;;;;;;;84.65;18.25;;;;;;;;;;5070979;28;20207;-69
2022/03/03 08:10:40;;;;;;;82.10;17.08;;;;;;;;;;5071493;28;20254;-69
2022/03/03 08:13:07;;;;;;;84.25;18.30;;;;;;;;;;5071587;28;20201;-68
2022/03/03 08:15:38;;;;;;;79.25;17.25;;;;;;;;;;5069587;28;20289;-68
2022/03/03 08:18:05;;;;;;;83.75;17.10;;;;;;;;;;5071429;28;20308;-68
2022/03/03 08:20:33;;;;;;;80.78;17.70;;;;;;;;;;5071288;28;20307;-69
2022/03/03 08:23:01;;;;;;;84.35;18.67;;;;;;;;;;5071503;28;20579;-68
2022/03/03 08:25:28;;;;;;;81.25;16.98;;;;;;;;;;5071519;28;20231;-68
2022/03/03 08:27:56;;;;;;;81.95;17.95;;;;;;;;;;5075112;28;20212;-69
2022/03/03 08:30:24;;;;;;;79.18;17.85;;;;;;;;;;5074271;28;20673;-69
2022/03/03 08:32:57;;;;;;;77.80;16.25;;;;;;;;;;5075306;28;20200;-71
2022/03/03 08:35:27;;;;;;;81.40;16.92;;;;;;;;;;5075553;28;20247;-68
2022/03/03 08:38:01;;;;;;;79.45;16.92;;;;;;;;;;5075158;28;20216;-69
2022/03/03 08:40:28;;;;;;;85.93;18.75;;;;;;;;;;5075056;28;20216;-69
2022/03/03 08:42:57;;;;;;;80.18;16.38;;;;;;;;;;5075282;28;20561;-68
2022/03/03 08:45:28;;;;;;;77.15;17.65;;;;;;;;;;5074892;28;20225;-71
2022/03/03 08:47:57;;;;;;;78.72;17.20;;;;;;;;;;5074976;28;20209;-69
2022/03/03 08:50:27;;;;;;;78.40;16.98;;;;;;;;;;5075278;28;20217;-69
2022/03/03 08:52:55;;;;;;;83.63;19.40;;;;;;;;;;5083919;28;20699;-70
2022/03/03 08:55:24;;;;;;;77.85;16.55;;;;;;;;;;5095384;28;20736;-68
2022/03/03 08:57:51;;;;;;;78.15;17.13;;;;;;;;;;5094988;28;20210;-68
2022/03/03 09:00:18;;;;;;;82.40;17.70;;;;;;;;;;5095292;28;20200;-71
2022/03/03 09:02:47;;;;;;;79.13;16.67;;;;;;;;;;5095189;28;20211;-69
2022/03/03 09:05:15;;;;;;;81.90;19.42;;;;;;;;;;5095063;28;20226;-69
2022/03/03 09:07:42;;;;;;;80.57;17.70;;;;;;;;;;5094689;28;20207;-69
2022/03/03 09:10:10;;;;;;;81.65;17.77;;;;;;;;;;5095168;28;20211;-68
2022/03/03 09:12:39;;;;;;;81.28;17.58;;;;;;;;;;5094290;28;20249;-69
2022/03/03 09:15:07;;;;;;;77.60;18.20;;;;;;;;;;5094545;28;20224;-69
2022/03/03 09:17:35;;;;;;;80.45;17.00;;;;;;;;;;5094406;28;20196;-70
2022/03/03 09:20:02;;;;;;;75.57;15.85;;;;;;;;;;5094808;28;20205;-68
2022/03/03 09:22:29;;;;;;;74.32;15.85;;;;;;;;;;5094904;28;20228;-69
2022/03/03 09:24:57;;;;;;;81.07;18.10;;;;;;;;;;5092588;28;20232;-68
2022/03/03 09:27:24;;;;;;;81.00;16.90;;;;;;;;;;5094568;28;20204;-69
2022/03/03 09:29:53;;;;;;;80.43;15.45;;;;;;;;;;5094548;28;20216;-69
2022/03/03 09:32:20;;;;;;;80.28;16.65;;;;;;;;;;5094162;28;20235;-69
2022/03/03 09:34:47;;;;;;;75.20;15.57;;;;;;;;;;5093813;28;20319;-71
2022/03/03 09:37:14;;;;;;;78.47;16.63;;;;;;;;;;5094237;28;20208;-68
2022/03/03 09:39:41;;;;;;;75.75;15.75;;;;;;;;;;5094019;28;20294;-71
2022/03/03 09:42:09;;;;;;;75.22;14.80;;;;;;;;;;5094182;28;20224;-68
2022/03/03 09:44:36;;;;;;;77.28;15.93;;;;;;;;;;5094307;28;20204;-69
2022/03/03 09:47:05;;;;;;;77.07;16.73;;;;;;;;;;5094210;28;20201;-69
2022/03/03 09:49:33;;;;;;;80.10;17.10;;;;;;;;;;5093652;28;20218;-72
2022/03/03 09:52:01;;;;;;;76.45;15.80;;;;;;;;;;5093975;28;20288;-71
2022/03/03 09:54:28;;;;;;;76.82;16.13;;;;;;;;;;5093679;28;20201;-70
2022/03/03 09:56:55;;;;;;;78.20;15.55;;;;;;;;;;5092187;28;20207;-69
2022/03/03 09:59:22;;;;;;;80.35;16.83;;;;;;;;;;5093653;28;20212;-69
2022/03/03 10:01:49;;;;;;;79.03;15.93;;;;;;;;;;5093568;28;20222;-69
2022/03/03 10:04:22;;;;;;;75.67;16.40;;;;;;;;;;5093480;28;20451;-70
2022/03/03 10:06:49;;;;;;;78.00;17.20;;;;;;;;;;5093543;28;20521;-69
2022/03/03 10:09:17;;;;;;;80.30;15.90;;;;;;;;;;5093483;28;20477;-70
2022/03/03 10:11:59;;;;;;;75.47;16.60;;;;;;;;;;5093624;28;20794;-69
2022/03/03 10:14:27;;;;;;;75.27;16.20;;;;;;;;;;5092739;28;20954;-68
2022/03/03 10:16:54;;;;;;;71.37;14.13;;;;;;;;;;5093415;28;20908;-68
2022/03/03 10:19:23;;;;;;;79.13;16.33;;;;;;;;;;5093489;28;20448;-69
2022/03/03 10:21:50;;;;;;;71.60;15.93;;;;;;;;;;5093814;28;20489;-68
2022/03/03 10:24:19;;;;;;;81.67;16.47;;;;;;;;;;5093443;28;20456;-70
2022/03/03 10:26:47;;;;;;;74.00;15.10;;;;;;;;;;5091183;28;20471;-69
2022/03/03 10:29:17;;;;;;;72.93;14.67;;;;;;;;;;5092829;28;20463;-69
2022/03/03 10:31:48;;;;;;;74.10;15.43;;;;;;;;;;5092778;28;20449;-72
2022/03/03 10:34:19;;;;;;;71.87;14.87;;;;;;;;;;5092330;28;20544;-70
2022/03/03 10:36:57;;;;;;;72.83;15.53;;;;;;;;;;5092700;28;20505;-69
2022/03/03 10:39:24;;;;;;;74.50;16.43;;;;;;;;;;5092942;28;20478;-70
2022/03/03 10:41:55;;;;;;;75.07;15.87;;;;;;;;;;5092408;28;20486;-73
2022/03/03 10:44:23;;;;;;;76.13;15.47;;;;;;;;;;5072682;28;20539;-70
2022/03/03 10:47:04;;;;;;;72.67;15.70;;;;;;;;;;5073170;28;20441;-71
2022/03/03 10:49:32;;;;;;;71.97;15.40;;;;;;;;;;5071846;28;20482;-70
2022/03/03 10:52:11;;;;;;;69.40;14.80;;;;;;;;;;5072491;28;20441;-69
2022/03/03 10:54:49;;;;;;;72.63;15.93;;;;;;;;;;5071915;28;20965;-70
2022/03/03 10:57:30;;;;;;;70.27;14.80;;;;;;;;;;5072062;28;20534;-71
2022/03/03 10:59:58;;;;;;;72.50;14.00;;;;;;;;;;5073237;28;20439;-71
2022/03/03 11:02:28;;;;;;;71.30;14.10;;;;;;;;;;5072620;28;20475;-70
2022/03/03 11:04:55;;;;;;;74.17;15.40;;;;;;;;;;5072510;28;20463;-70
2022/03/03 11:07:24;;;;;;;70.00;14.20;;;;;;;;;;5072193;28;20524;-70
2022/03/03 11:09:51;;;;;;;70.37;14.57;;;;;;;;;;5072227;28;20460;-70
2022/03/03 11:12:19;;;;;;;68.00;13.70;;;;;;;;;;5072128;28;20827;-71
2022/03/03 11:14:46;;;;;;;69.47;14.43;;;;;;;;;;5081925;28;20535;-71
2022/03/03 11:17:14;;;;;;;74.27;15.87;;;;;;;;;;5092195;28;20475;-70
2022/03/03 11:19:41;;;;;;;71.40;14.90;;;;;;;;;;5092567;28;20533;-70
2022/03/03 11:22:08;;;;;;;71.57;14.70;;;;;;;;;;5092231;28;20475;-70
2022/03/03 11:24:38;;;;;;;69.87;14.47;;;;;;;;;;5092308;28;20456;-70
2022/03/03 11:27:06;;;;;;;69.77;14.60;;;;;;;;;;5092307;28;20534;-70
2022/03/03 11:29:37;;;;;;;70.10;14.07;;;;;;;;;;5091904;28;20459;-70
2022/03/03 11:32:05;;;;;;;70.63;14.83;;;;;;;;;;5092313;28;20493;-71
2022/03/03 11:34:44;;;;;;;71.03;14.73;;;;;;;;;;5091542;28;20532;-69
2022/03/03 11:37:17;;;;;;;75.80;15.50;;;;;;;;;;5090717;28;20532;-70
2022/03/03 11:39:48;;;;;;;74.60;16.37;;;;;;;;;;5092114;28;20955;-71
2022/03/03 11:42:19;;;;;;;72.80;15.60;;;;;;;;;;5092383;28;20489;-70
2022/03/03 11:44:46;;;;;;;72.50;14.70;;;;;;;;;;5092301;28;20473;-70
2022/03/03 11:47:20;;;;;;;74.77;16.43;;;;;;;;;;5070251;28;20501;-70
2022/03/03 11:50:16;;;;;;;69.97;15.13;;;;;;;;;;5071546;28;20443;-71
2022/03/03 11:52:44;;;;;;;72.57;13.90;;;;;;;;;;5036568;28;20455;-71
2022/03/03 11:55:30;;;;;;;69.20;15.33;;;;;;;;;;5071020;28;20470;-71
2022/03/03 11:57:59;;;;;;;71.90;14.60;;;;;;;;;;5071174;28;20455;-70
2022/03/03 12:00:26;;;;;;;74.07;15.27;;;;;;;;;;5070790;28;20542;-71
2022/03/03 12:02:58;;;;;;;69.67;15.40;;;;;;;;;;5071637;28;20446;-71
2022/03/03 12:05:35;;;;;;;71.37;16.07;;;;;;;;;;5071649;28;20554;-72
2022/03/03 12:08:03;;;;;;;74.43;16.20;;;;;;;;;;5071156;28;20447;-70
2022/03/03 12:10:33;;;;;;;72.97;16.20;;;;;;;;;;5071748;28;20458;-70
2022/03/03 12:13:18;;;;;;;74.37;16.73;;;;;;;;;;5071009;28;20565;-71
2022/03/03 12:16:05;;;;;;;71.37;15.53;;;;;;;;;;5070610;28;20503;-71
2022/03/03 12:18:36;;;;;;;72.77;16.17;;;;;;;;;;5087430;28;20534;-69
2022/03/03 12:21:18;;;;;;;74.13;16.40;;;;;;;;;;5091719;28;20453;-69
2022/03/03 12:23:45;;;;;;;73.03;17.90;;;;;;;;;;5091288;28;20549;-69
2022/03/03 12:26:13;;;;;;;75.60;16.50;;;;;;;;;;5091594;28;20469;-70
2022/03/03 12:28:41;;;;;;;73.57;18.20;;;;;;;;;;5091045;28;20457;-69
2022/03/03 12:31:24;;;;;;;71.93;16.47;;;;;;;;;;5091543;28;20538;-69
2022/03/03 12:34:01;;;;;;;72.17;16.87;;;;;;;;;;5090852;28;20465;-69
2022/03/03 12:36:29;;;;;;;71.77;16.27;;;;;;;;;;5091495;28;20569;-70
2022/03/03 12:38:57;;;;;;;73.30;16.20;;;;;;;;;;5091246;28;20457;-71
2022/03/03 12:41:27;;;;;;;73.67;18.07;;;;;;;;;;5091469;28;20478;-70
2022/03/03 12:43:54;;;;;;;72.27;16.63;;;;;;;;;;5091330;28;20451;-70
2022/03/03 12:46:22;;;;;;;73.43;17.43;;;;;;;;;;5091459;28;20847;-70
2022/03/03 12:48:49;;;;;;;72.87;16.17;;;;;;;;;;5088373;28;20448;-71
2022/03/03 12:51:16;;;;;;;70.50;16.50;;;;;;;;;;5071166;28;20534;-70
2022/03/03 12:53:47;;;;;;;71.97;16.83;;;;;;;;;;5070933;28;20478;-70
2022/03/03 12:56:20;;;;;;;75.90;17.53;;;;;;;;;;5070700;28;20468;-70
2022/03/03 12:58:49;;;;;;;71.80;16.47;;;;;;;;;;5071301;28;20453;-71
2022/03/03 13:01:21;;;;;;;73.10;17.70;;;;;;;;;;5071183;28;20823;-70
2022/03/03 13:03:48;;;;;;;72.90;17.27;;;;;;;;;;5071272;28;20443;-70
2022/03/03 13:06:15;;;;;;;73.47;16.20;;;;;;;;;;5071433;28;20459;-72
2022/03/03 13:08:42;;;;;;;74.90;16.67;;;;;;;;;;5071087;28;20443;-69
2022/03/03 13:11:10;;;;;;;76.80;17.87;;;;;;;;;;5070955;28;20954;-70
2022/03/03 13:13:45;;;;;;;73.43;16.67;;;;;;;;;;5074297;28;21102;-70
2022/03/03 13:16:14;;;;;;;75.43;17.07;;;;;;;;;;5074052;28;20987;-69
2022/03/03 13:18:42;;;;;;;78.57;17.50;;;;;;;;;;5074305;28;20451;-71
2022/03/03 13:21:10;;;;;;;74.90;17.40;;;;;;;;;;5073778;28;20616;-69
2022/03/03 13:23:40;;;;;;;74.93;17.53;;;;;;;;;;5074280;28;20887;-71
2022/03/03 13:26:09;;;;;;;72.10;18.07;;;;;;;;;;5074551;28;20474;-70
2022/03/03 13:28:40;;;;;;;75.67;17.37;;;;;;;;;;5074281;28;20883;-70
2022/03/03 13:31:07;;;;;;;75.30;17.13;;;;;;;;;;5074482;28;20455;-70
2022/03/03 13:33:51;;;;;;;74.10;17.27;;;;;;;;;;5074136;28;20478;-70
2022/03/03 13:36:20;;;;;;;72.73;16.70;;;;;;;;;;5073335;28;20475;-70
2022/03/03 13:38:47;;;;;;;74.97;17.43;;;;;;;;;;5074110;28;20454;-69
2022/03/03 13:41:21;;;;;;;79.80;18.23;;;;;;;;;;5074527;28;20802;-70
2022/03/03 13:43:48;;;;;;;71.33;17.30;;;;;;;;;;5074260;28;20442;-70
2022/03/03 13:46:28;;;;;;;75.70;17.70;;;;;;;;;;5074219;28;20918;-71
2022/03/03 13:48:57;;;;;;;73.33;17.60;;;;;;;;;;5073887;28;20868;-69
2022/03/03 13:51:24;;;;;;;77.40;18.33;;;;;;;;;;5073831;28;20467;-71
2022/03/03 13:53:58;;;;;;;74.93;18.23;;;;;;;;;;5091931;28;20581;-69
2022/03/03 13:56:27;;;;;;;79.13;18.53;;;;;;;;;;5093600;28;20561;-70
2022/03/03 13:59:04;;;;;;;76.57;18.77;;;;;;;;;;5093732;28;20451;-70
2022/03/03 14:01:33;;;;;;;77.23;18.27;;;;;;;;;;5093966;28;20553;-69
2022/03/03 14:04:11;;;;;;;76.53;19.00;;;;;;;;;;5093989;28;20455;-69
2022/03/03 14:06:45;;;;;;;77.97;18.00;;;;;;;;;;5094108;28;20560;-69
2022/03/03 14:09:22;;;;;;;73.20;16.83;;;;;;;;;;5093872;28;20534;-69
2022/03/03 14:11:50;;;;;;;74.23;17.40;;;;;;;;;;5093344;28;20510;-69
2022/03/03 14:14:19;;;;;;;72.53;16.43;;;;;;;;;;5093963;28;20844;-70
2022/03/03 14:16:47;;;;;;;73.93;15.83;;;;;;;;;;5093126;28;20466;-69
2022/03/03 14:19:15;;;;;;;71.67;16.40;;;;;;;;;;5093417;28;20504;-69
2022/03/03 14:21:42;;;;;;;74.40;18.17;;;;;;;;;;5093774;28;20529;-69
2022/03/03 14:24:10;;;;;;;72.57;16.43;;;;;;;;;;5090273;28;20447;-69
2022/03/03 14:26:37;;;;;;;73.80;15.70;;;;;;;;;;5093641;28;20481;-70
2022/03/03 14:29:04;;;;;;;73.40;15.53;;;;;;;;;;5093386;28;20467;-70